Snow/Ice From: 16-12-2017 16:00 Until: 17-12-2017 16:00 warning for: Snow/Ice Level: Yellow info button

Although rather usual in this region, locally or potentially dangerous phenomena are expected. (such as local winds, summer thunderstorms, rising streams or high waves) Be aware and pay attention to the latest weather updates, especially if you carry out activities exposed to weather or close to a stream or shoreline. 


Meteo18 Weather Cam more information Meteo18 Weather Cam


Thunder radar more information blitzortung!


warning for Snow/Ice more information rain snow radar


Visit our other weather sites:

Template documentation
and downloads

And another site



Weather Underground History page Text

Daily Summary for August 23, 2016 Units:  Metric    English   Both
« Previous Day
Next Day »
Daily Weekly Monthly Yearly Custom
  High: Low: Average:
Temperature: 34.1 °C 14.8 °C 24.4 °C
Dew Point: 16.3 °C 12.8 °C 14.8 °C
Humidity: 89 % 31 % 59 %
Wind Speed: 14.5 km/h 0.0 km/h 2.1 km/h
Wind Gust: 19.3 km/h - -
Wind:- - ESE
Pressure: 1025.3 hPa 1019.2 hPa -
Precipitation: 0.0 mm    
Historical Graphs
 
 
Tabular Data for August 23, 2016
Time Temperature Dew Point Pressure Wind Wind Speed Wind Gust Humidity Rainfall Rate (Hourly)
00:02 19.1 °C 13.7 °C 1025.3 hPa Calm     71 % 0.0 mm
00:12 19.0 °C 14.0 °C 1025.3 hPa Calm     73 % 0.0 mm
00:17 19.1 °C 14.4 °C 1024.9 hPa Calm     74 % 0.0 mm
00:22 19.3 °C 14.3 °C 1024.9 hPa Calm     73 % 0.0 mm
00:32 19.4 °C 14.4 °C 1024.9 hPa Calm     73 % 0.0 mm
00:42 19.2 °C 14.2 °C 1024.9 hPa Calm     73 % 0.0 mm
00:47 19.1 °C 14.1 °C 1024.9 hPa Calm     73 % 0.0 mm
01:02 19.0 °C 14.3 °C 1024.9 hPa Calm     74 % 0.0 mm
01:12 19.3 °C 14.3 °C 1024.9 hPa Calm     73 % 0.0 mm
01:17 19.0 °C 13.8 °C 1024.9 hPa Calm     72 % 0.0 mm
01:22 18.3 °C 14.0 °C 1024.9 hPa Calm     76 % 0.0 mm
01:32 18.0 °C 13.9 °C 1024.9 hPa Calm     77 % 0.0 mm
01:42 18.1 °C 14.0 °C 1024.9 hPa Calm     77 % 0.0 mm
01:52 17.9 °C 13.8 °C 1024.9 hPa Calm     77 % 0.0 mm
01:57 17.8 °C 13.9 °C 1024.9 hPa Calm     78 % 0.0 mm
02:02 17.8 °C 13.9 °C 1024.9 hPa Calm     78 % 0.0 mm
02:12 17.9 °C 14.2 °C 1024.6 hPa Calm     79 % 0.0 mm
02:17 17.8 °C 14.1 °C 1024.6 hPa Calm     79 % 0.0 mm
02:22 17.8 °C 13.9 °C 1024.6 hPa Calm     78 % 0.0 mm
02:32 17.7 °C 14.0 °C 1024.6 hPa Calm     79 % 0.0 mm
02:42 17.3 °C 13.8 °C 1024.6 hPa Calm     80 % 0.0 mm
02:52 17.4 °C 13.9 °C 1024.3 hPa Calm     80 % 0.0 mm
02:57 17.4 °C 13.7 °C 1024.3 hPa Calm   3.2 km/h 79 % 0.0 mm
03:02 17.2 °C 13.5 °C 1024.3 hPa NW 1.6 km/h 3.2 km/h 79 % 0.0 mm
03:12 16.9 °C 13.6 °C 1024.3 hPa Calm   1.6 km/h 81 % 0.0 mm
03:17 16.8 °C 13.5 °C 1024.3 hPa Calm   1.6 km/h 81 % 0.0 mm
03:22 16.8 °C 13.7 °C 1024.3 hPa Calm   1.6 km/h 82 % 0.0 mm
03:32 16.9 °C 13.8 °C 1024.3 hPa Calm   1.6 km/h 82 % 0.0 mm
03:42 16.7 °C 13.6 °C 1024.3 hPa Calm   1.6 km/h 82 % 0.0 mm
03:47 16.6 °C 13.7 °C 1024.3 hPa Calm   1.6 km/h 83 % 0.0 mm
03:52 16.4 °C 13.5 °C 1024.3 hPa Calm   1.6 km/h 83 % 0.0 mm
03:57 16.3 °C 13.4 °C 1024.3 hPa Calm   1.6 km/h 83 % 0.0 mm
04:02 16.3 °C 13.6 °C 1024.3 hPa North 1.6 km/h 1.6 km/h 84 % 0.0 mm
04:12 16.5 °C 13.6 °C 1024.3 hPa NNE 1.6 km/h 1.6 km/h 83 % 0.0 mm
04:17 16.5 °C 13.8 °C 1024.3 hPa Calm   3.2 km/h 84 % 0.0 mm
04:32 16.3 °C 13.6 °C 1023.9 hPa NNE 3.2 km/h 3.2 km/h 84 % 0.0 mm
04:37 16.3 °C 13.6 °C 1023.9 hPa Calm   3.2 km/h 84 % 0.0 mm
04:42 16.3 °C 13.6 °C 1023.9 hPa Calm   3.2 km/h 84 % 0.0 mm
04:52 16.4 °C 13.7 °C 1023.9 hPa North 1.6 km/h 3.2 km/h 84 % 0.0 mm
05:02 16.4 °C 13.7 °C 1023.9 hPa Calm   1.6 km/h 84 % 0.0 mm
05:12 16.4 °C 13.5 °C 1023.9 hPa NNW 1.6 km/h 3.2 km/h 83 % 0.0 mm
05:27 15.8 °C 13.3 °C 1023.9 hPa Calm   1.6 km/h 85 % 0.0 mm
05:32 15.8 °C 13.3 °C 1023.9 hPa North 1.6 km/h 1.6 km/h 85 % 0.0 mm
05:42 15.5 °C 13.2 °C 1023.9 hPa Calm   3.2 km/h 86 % 0.0 mm
05:52 15.3 °C 13.1 °C 1023.9 hPa Calm   3.2 km/h 87 % 0.0 mm
06:02 15.1 °C 13.0 °C 1023.9 hPa Calm   1.6 km/h 87 % 0.0 mm
06:12 15.1 °C 13.1 °C 1023.9 hPa Calm   1.6 km/h 88 % 0.0 mm
06:17 15.1 °C 13.1 °C 1023.9 hPa Calm   1.6 km/h 88 % 0.0 mm
06:22 15.1 °C 13.1 °C 1023.9 hPa Calm   1.6 km/h 88 % 0.0 mm
06:32 15.1 °C 13.1 °C 1023.9 hPa Calm   1.6 km/h 88 % 0.0 mm
06:42 14.9 °C 12.9 °C 1023.9 hPa Calm   1.6 km/h 88 % 0.0 mm
06:52 14.9 °C 12.9 °C 1023.9 hPa Calm   1.6 km/h 88 % 0.0 mm
06:57 14.8 °C 12.8 °C 1023.9 hPa Calm   1.6 km/h 88 % 0.0 mm
07:02 14.8 °C 13.0 °C 1023.9 hPa Calm     89 % 0.0 mm
07:12 15.0 °C 13.0 °C 1023.9 hPa North 1.6 km/h   88 % 0.0 mm
07:27 15.6 °C 13.4 °C 1023.9 hPa Calm   1.6 km/h 87 % 0.0 mm
07:32 15.7 °C 13.4 °C 1024.3 hPa Calm   1.6 km/h 86 % 0.0 mm
07:42 16.1 °C 13.6 °C 1024.3 hPa Calm     85 % 0.0 mm
07:47 16.5 °C 14.0 °C 1024.3 hPa Calm     85 % 0.0 mm
07:52 17.0 °C 14.1 °C 1023.9 hPa Calm     83 % 0.0 mm
08:02 16.9 °C 13.8 °C 1024.3 hPa NNE 4.8 km/h 4.8 km/h 82 % 0.0 mm
08:12 16.8 °C 13.9 °C 1024.3 hPa ENE 1.6 km/h 6.4 km/h 83 % 0.0 mm
08:22 17.3 °C 14.2 °C 1024.3 hPa ENE 3.2 km/h 6.4 km/h 82 % 0.0 mm
08:32 17.9 °C 14.4 °C 1024.3 hPa NE 1.6 km/h 6.4 km/h 80 % 0.0 mm
08:37 18.1 °C 14.4 °C 1024.3 hPa Calm   6.4 km/h 79 % 0.0 mm
08:42 18.4 °C 14.5 °C 1024.3 hPa Calm   4.8 km/h 78 % 0.0 mm
08:57 19.2 °C 14.7 °C 1024.3 hPa Calm   3.2 km/h 75 % 0.0 mm
09:02 19.4 °C 14.9 °C 1024.3 hPa Calm   3.2 km/h 75 % 0.0 mm
09:07 19.9 °C 14.9 °C 1024.3 hPa Calm   3.2 km/h 73 % 0.0 mm
09:12 20.2 °C 15.0 °C 1024.3 hPa Calm   4.8 km/h 72 % 0.0 mm
09:22 20.6 °C 14.9 °C 1024.3 hPa ESE 1.6 km/h 4.8 km/h 70 % 0.0 mm
09:32 21.1 °C 15.0 °C 1024.3 hPa Calm   4.8 km/h 68 % 0.0 mm
09:37 21.3 °C 14.9 °C 1024.3 hPa SSE 1.6 km/h 4.8 km/h 67 % 0.0 mm
09:42 21.2 °C 14.8 °C 1024.3 hPa ENE 3.2 km/h 6.4 km/h 67 % 0.0 mm
09:52 21.5 °C 14.9 °C 1023.9 hPa SE 4.8 km/h 6.4 km/h 66 % 0.0 mm
10:02 21.8 °C 15.2 °C 1023.9 hPa Calm   8.0 km/h 66 % 0.0 mm
10:12 22.0 °C 14.9 °C 1023.9 hPa SE 4.8 km/h 6.4 km/h 64 % 0.0 mm
10:17 22.1 °C 15.0 °C 1023.9 hPa ESE 3.2 km/h 6.4 km/h 64 % 0.0 mm
10:22 22.3 °C 15.2 °C 1023.9 hPa ENE 1.6 km/h 8.0 km/h 64 % 0.0 mm
10:32 22.7 °C 15.0 °C 1023.9 hPa ESE 3.2 km/h 8.0 km/h 62 % 0.0 mm
10:42 22.7 °C 15.0 °C 1023.9 hPa SE 3.2 km/h 6.4 km/h 62 % 0.0 mm
10:52 23.3 °C 14.8 °C 1023.9 hPa SSE 1.6 km/h 12.9 km/h 59 % 0.0 mm
10:57 23.5 °C 15.3 °C 1023.9 hPa ENE 4.8 km/h 12.9 km/h 60 % 0.0 mm
11:02 23.6 °C 14.9 °C 1023.9 hPa SSW 6.4 km/h 8.0 km/h 58 % 0.0 mm
11:12 24.0 °C 15.0 °C 1023.9 hPa SE 6.4 km/h 9.7 km/h 57 % 0.0 mm
11:17 23.9 °C 14.9 °C 1023.9 hPa SE 3.2 km/h 9.7 km/h 57 % 0.0 mm
11:22 24.1 °C 15.0 °C 1023.9 hPa SSE 3.2 km/h 9.7 km/h 57 % 0.0 mm
11:32 24.7 °C 15.3 °C 1023.6 hPa SSE 3.2 km/h 9.7 km/h 56 % 0.0 mm
11:42 24.9 °C 15.2 °C 1023.6 hPa East 4.8 km/h 11.3 km/h 55 % 0.0 mm
11:52 25.3 °C 15.3 °C 1023.6 hPa East 8.0 km/h 9.7 km/h 54 % 0.0 mm
12:02 25.3 °C 15.3 °C 1023.2 hPa ENE 8.0 km/h 9.7 km/h 54 % 0.0 mm
12:12 25.7 °C 15.7 °C 1023.2 hPa ENE 3.2 km/h 9.7 km/h 54 % 0.0 mm
12:17 26.1 °C 15.2 °C 1023.2 hPa ENE 1.6 km/h 16.1 km/h 51 % 0.0 mm
12:22 26.6 °C 15.0 °C 1022.9 hPa ESE 6.4 km/h 16.1 km/h 49 % 0.0 mm
12:32 26.4 °C 15.1 °C 1022.9 hPa ESE 6.4 km/h 17.7 km/h 50 % 0.0 mm
12:42 27.0 °C 15.4 °C 1022.9 hPa ESE 1.6 km/h 17.7 km/h 49 % 0.0 mm
12:47 27.1 °C 15.5 °C 1022.9 hPa ENE 3.2 km/h 11.3 km/h 49 % 0.0 mm
12:52 27.4 °C 15.7 °C 1022.9 hPa ESE 4.8 km/h 11.3 km/h 49 % 0.0 mm
12:57 27.9 °C 15.2 °C 1022.9 hPa ENE 6.4 km/h 11.3 km/h 46 % 0.0 mm
13:02 28.2 °C 15.8 °C 1022.6 hPa ENE 3.2 km/h 8.0 km/h 47 % 0.0 mm
13:07 28.3 °C 15.6 °C 1022.6 hPa SE 1.6 km/h 8.0 km/h 46 % 0.0 mm
13:12 28.7 °C 15.2 °C 1022.6 hPa SW 8.0 km/h 8.0 km/h 44 % 0.0 mm
13:32 29.1 °C 14.9 °C 1022.2 hPa South 6.4 km/h 16.1 km/h 42 % 0.0 mm
13:42 28.9 °C 15.1 °C 1022.2 hPa NE 4.8 km/h 12.9 km/h 43 % 0.0 mm
13:47 29.1 °C 15.2 °C 1022.2 hPa SSE 1.6 km/h 12.9 km/h 43 % 0.0 mm
13:52 29.4 °C 14.8 °C 1022.2 hPa East 8.0 km/h 19.3 km/h 41 % 0.0 mm
14:02 29.7 °C 15.4 °C 1022.2 hPa NE 8.0 km/h 14.5 km/h 42 % 0.0 mm
14:12 29.9 °C 14.8 °C 1022.2 hPa East 4.8 km/h 9.7 km/h 40 % 0.0 mm
14:17 30.0 °C 14.9 °C 1022.2 hPa ESE 3.2 km/h 9.7 km/h 40 % 0.0 mm
14:22 30.2 °C 15.1 °C 1021.9 hPa SSE 3.2 km/h 11.3 km/h 40 % 0.0 mm
14:32 30.9 °C 14.9 °C 1021.9 hPa SE 4.8 km/h 16.1 km/h 38 % 0.0 mm
14:42 31.2 °C 14.8 °C 1021.9 hPa ENE 11.3 km/h 12.9 km/h 37 % 0.0 mm
14:47 31.1 °C 15.1 °C 1021.9 hPa Calm   12.9 km/h 38 % 0.0 mm
15:02 31.0 °C 15.4 °C 1021.6 hPa SE 1.6 km/h 17.7 km/h 39 % 0.0 mm
15:12 31.4 °C 15.0 °C 1021.6 hPa East 8.0 km/h 16.1 km/h 37 % 0.0 mm
15:17 31.5 °C 14.6 °C 1021.6 hPa SW 4.8 km/h 16.1 km/h 36 % 0.0 mm
15:22 31.9 °C 15.4 °C 1021.6 hPa ENE 4.8 km/h 17.7 km/h 37 % 0.0 mm
15:32 31.9 °C 15.4 °C 1021.2 hPa ENE 4.8 km/h 16.1 km/h 37 % 0.0 mm
15:42 31.8 °C 14.9 °C 1021.2 hPa ENE 14.5 km/h 16.1 km/h 36 % 0.0 mm
15:47 31.8 °C 15.7 °C 1020.9 hPa East 9.7 km/h 16.1 km/h 38 % 0.0 mm
15:52 31.9 °C 15.0 °C 1020.9 hPa East 6.4 km/h 19.3 km/h 36 % 0.0 mm
16:02 32.6 °C 14.2 °C 1020.9 hPa ESE 4.8 km/h 17.7 km/h 33 % 0.0 mm
16:12 33.1 °C 14.7 °C 1020.9 hPa NE 6.4 km/h 17.7 km/h 33 % 0.0 mm
16:22 33.4 °C 14.5 °C 1020.5 hPa East 6.4 km/h 11.3 km/h 32 % 0.0 mm
16:27 33.3 °C 14.4 °C 1020.5 hPa ENE 8.0 km/h 12.9 km/h 32 % 0.0 mm
16:37 33.4 °C 14.5 °C 1020.5 hPa East 9.7 km/h 16.1 km/h 32 % 0.0 mm
16:42 33.3 °C 14.4 °C 1020.5 hPa ENE 4.8 km/h 16.1 km/h 32 % 0.0 mm
16:47 33.3 °C 14.4 °C 1020.5 hPa SE 3.2 km/h 14.5 km/h 32 % 0.0 mm
16:52 33.6 °C 14.6 °C 1020.5 hPa Calm   14.5 km/h 32 % 0.0 mm
16:57 33.7 °C 14.2 °C 1020.5 hPa East 4.8 km/h 14.5 km/h 31 % 0.0 mm
17:02 33.6 °C 14.6 °C 1020.5 hPa East 8.0 km/h 14.5 km/h 32 % 0.0 mm
17:17 33.7 °C 15.2 °C 1020.2 hPa SSW 1.6 km/h 14.5 km/h 33 % 0.0 mm
17:22 33.8 °C 14.8 °C 1020.2 hPa SSE 3.2 km/h 14.5 km/h 32 % 0.0 mm
17:27 33.8 °C 14.8 °C 1020.2 hPa SSE 3.2 km/h 12.9 km/h 32 % 0.0 mm
17:32 34.1 °C 15.1 °C 1020.2 hPa SE 3.2 km/h 12.9 km/h 32 % 0.0 mm
17:42 34.1 °C 14.6 °C 1020.2 hPa SSE 1.6 km/h 14.5 km/h 31 % 0.0 mm
17:47 34.1 °C 15.1 °C 1019.9 hPa East 4.8 km/h 11.3 km/h 32 % 0.0 mm
17:52 34.0 °C 15.0 °C 1019.9 hPa SE 4.8 km/h 11.3 km/h 32 % 0.0 mm
17:57 34.1 °C 15.1 °C 1019.9 hPa NE 12.9 km/h 12.9 km/h 32 % 0.0 mm
18:02 33.7 °C 15.2 °C 1019.9 hPa SSW 1.6 km/h 11.3 km/h 33 % 0.0 mm
18:07 33.9 °C 14.9 °C 1019.9 hPa SSE 8.0 km/h 14.5 km/h 32 % 0.0 mm
18:17 33.8 °C 15.3 °C 1019.9 hPa ESE 3.2 km/h 14.5 km/h 33 % 0.0 mm
18:27 33.5 °C 15.0 °C 1019.9 hPa ESE 8.0 km/h 12.9 km/h 33 % 0.0 mm
18:32 33.5 °C 15.0 °C 1019.5 hPa ENE 6.4 km/h 14.5 km/h 33 % 0.0 mm
18:42 33.4 °C 15.4 °C 1019.5 hPa East 6.4 km/h 14.5 km/h 34 % 0.0 mm
18:52 33.4 °C 15.8 °C 1019.5 hPa SSW 1.6 km/h 11.3 km/h 35 % 0.0 mm
18:57 33.7 °C 15.7 °C 1019.2 hPa ESE 1.6 km/h 11.3 km/h 34 % 0.0 mm
19:02 33.7 °C 15.7 °C 1019.2 hPa SSE 1.6 km/h 11.3 km/h 34 % 0.0 mm
19:12 33.5 °C 15.5 °C 1019.2 hPa Calm   11.3 km/h 34 % 0.0 mm
19:17 33.5 °C 15.5 °C 1019.2 hPa SW 1.6 km/h 11.3 km/h 34 % 0.0 mm
19:27 33.2 °C 15.7 °C 1019.2 hPa South 4.8 km/h 11.3 km/h 35 % 0.0 mm
19:32 33.1 °C 15.6 °C 1019.2 hPa SW 4.8 km/h 11.3 km/h 35 % 0.0 mm
19:37 32.9 °C 15.9 °C 1019.2 hPa SE 3.2 km/h 11.3 km/h 36 % 0.0 mm
19:42 32.9 °C 15.9 °C 1019.2 hPa SE 1.6 km/h 11.3 km/h 36 % 0.0 mm
19:52 32.8 °C 15.8 °C 1019.2 hPa Calm   8.0 km/h 36 % 0.0 mm
19:57 32.7 °C 15.7 °C 1019.2 hPa Calm   6.4 km/h 36 % 0.0 mm
20:02 32.7 °C 16.1 °C 1019.5 hPa Calm   6.4 km/h 37 % 0.0 mm
20:07 32.7 °C 16.1 °C 1019.5 hPa Calm   4.8 km/h 37 % 0.0 mm
20:12 32.7 °C 16.1 °C 1019.5 hPa Calm   4.8 km/h 37 % 0.0 mm
20:17 32.4 °C 16.3 °C 1019.5 hPa Calm   1.6 km/h 38 % 0.0 mm
20:27 32.1 °C 16.0 °C 1019.5 hPa Calm     38 % 0.0 mm
20:33 31.9 °C 16.2 °C 1019.5 hPa Calm     39 % 0.0 mm
20:42 31.2 °C 16.0 °C 1019.5 hPa Calm     40 % 0.0 mm
20:47 30.5 °C 15.8 °C 1019.5 hPa Calm     41 % 0.0 mm
20:52 29.8 °C 15.9 °C 1019.5 hPa Calm     43 % 0.0 mm
21:02 28.9 °C 16.1 °C 1019.9 hPa Calm     46 % 0.0 mm
21:12 28.2 °C 15.8 °C 1019.9 hPa Calm     47 % 0.0 mm
21:17 27.8 °C 16.1 °C 1019.9 hPa Calm     49 % 0.0 mm
21:22 27.4 °C 15.7 °C 1019.9 hPa Calm     49 % 0.0 mm
21:27 27.1 °C 15.8 °C 1019.9 hPa Calm     50 % 0.0 mm
21:32 26.8 °C 15.8 °C 1019.9 hPa Calm     51 % 0.0 mm
21:42 26.1 °C 15.8 °C 1019.9 hPa Calm     53 % 0.0 mm
21:47 25.8 °C 16.1 °C 1019.9 hPa Calm     55 % 0.0 mm
21:57 25.5 °C 16.1 °C 1019.9 hPa Calm     56 % 0.0 mm
22:02 25.3 °C 16.2 °C 1019.9 hPa Calm     57 % 0.0 mm
22:12 24.6 °C 16.1 °C 1019.9 hPa Calm     59 % 0.0 mm
22:17 24.6 °C 16.1 °C 1019.9 hPa Calm     59 % 0.0 mm
22:32 24.1 °C 16.1 °C 1019.9 hPa Calm     61 % 0.0 mm
22:37 23.9 °C 16.2 °C 1019.9 hPa Calm     62 % 0.0 mm
22:42 23.9 °C 15.9 °C 1019.9 hPa Calm     61 % 0.0 mm
22:47 23.8 °C 15.8 °C 1019.9 hPa Calm     61 % 0.0 mm
22:57 23.6 °C 15.6 °C 1019.9 hPa Calm     61 % 0.0 mm
23:02 23.5 °C 15.5 °C 1019.9 hPa Calm     61 % 0.0 mm
23:07 23.4 °C 15.7 °C 1019.9 hPa Calm     62 % 0.0 mm
23:12 23.3 °C 15.9 °C 1019.9 hPa Calm     63 % 0.0 mm
23:17 23.2 °C 15.5 °C 1019.9 hPa Calm     62 % 0.0 mm
23:22 23.2 °C 15.8 °C 1019.9 hPa Calm     63 % 0.0 mm
23:32 22.6 °C 15.4 °C 1019.9 hPa Calm     64 % 0.0 mm
23:37 22.4 °C 15.7 °C 1019.9 hPa Calm     66 % 0.0 mm
23:42 22.5 °C 15.8 °C 1020.2 hPa Calm     66 % 0.0 mm
23:52 22.2 °C 15.8 °C 1020.2 hPa Calm     67 % 0.0 mm
23:57 21.8 °C 15.6 °C 1020.2 hPa Calm     68 % 0.0 mm
Meteo18
Compliments of Weather Underground - 4 mb

Script developed by  Jim McMurry - jmcmurry@mwt.net Adapted for the template by  Wim van der Kuil - Leuven-Template.eu

You find our weather info also at:

European Weather Network

Weather Underground

Equipment we use:

Weather-station
Davis Vue

Weather-program
Meteohub

Weather-server
Raspberry PI 2 B+

Provider
1 and 1

Davis Vue

Meteohub

Raspberry PI 2 B+

1 and 1